sensor_id;sensor_type;location;lat;lon;timestamp;temperature;humidity
62476;DHT22;50739;45.670;11.936;2023-12-07T00:04:37;3.33;90.93
62476;DHT22;50739;45.670;11.936;2023-12-07T00:09:40;3.22;90.96
62476;DHT22;50739;45.670;11.936;2023-12-07T00:14:42;3.29;90.84
62476;DHT22;50739;45.670;11.936;2023-12-07T00:19:46;3.25;91.36
62476;DHT22;50739;45.670;11.936;2023-12-07T00:24:49;3.25;90.71
62476;DHT22;50739;45.670;11.936;2023-12-07T00:29:51;3.35;90.85
62476;DHT22;50739;45.670;11.936;2023-12-07T00:34:55;3.26;90.89
62476;DHT22;50739;45.670;11.936;2023-12-07T00:39:58;3.14;90.77
62476;DHT22;50739;45.670;11.936;2023-12-07T00:45:00;3.11;90.29
62476;DHT22;50739;45.670;11.936;2023-12-07T00:50:05;3.08;90.75
62476;DHT22;50739;45.670;11.936;2023-12-07T00:55:08;3.22;90.74
62476;DHT22;50739;45.670;11.936;2023-12-07T01:00:11;3.15;90.82
62476;DHT22;50739;45.670;11.936;2023-12-07T01:05:15;3.01;91.01
62476;DHT22;50739;45.670;11.936;2023-12-07T01:10:18;2.84;91.89
62476;DHT22;50739;45.670;11.936;2023-12-07T01:45:28;2.91;91.09
62476;DHT22;50739;45.670;11.936;2023-12-07T01:50:31;2.68;91.40
62476;DHT22;50739;45.670;11.936;2023-12-07T01:55:34;2.72;91.46
62476;DHT22;50739;45.670;11.936;2023-12-07T02:00:38;2.73;91.67
62476;DHT22;50739;45.670;11.936;2023-12-07T02:05:42;2.73;91.01
62476;DHT22;50739;45.670;11.936;2023-12-07T02:10:45;2.68;91.74
62476;DHT22;50739;45.670;11.936;2023-12-07T02:15:49;2.60;91.58
62476;DHT22;50739;45.670;11.936;2023-12-07T02:20:57;2.60;91.80
62476;DHT22;50739;45.670;11.936;2023-12-07T02:26:06;2.50;91.89
62476;DHT22;50739;45.670;11.936;2023-12-07T02:31:12;2.48;91.56
62476;DHT22;50739;45.670;11.936;2023-12-07T02:36:15;2.48;91.30
62476;DHT22;50739;45.670;11.936;2023-12-07T02:41:20;2.40;91.08
62476;DHT22;50739;45.670;11.936;2023-12-07T02:46:24;2.24;91.58
62476;DHT22;50739;45.670;11.936;2023-12-07T02:51:27;2.35;92.35
62476;DHT22;50739;45.670;11.936;2023-12-07T02:56:29;2.33;91.65
62476;DHT22;50739;45.670;11.936;2023-12-07T03:01:33;2.35;91.97
62476;DHT22;50739;45.670;11.936;2023-12-07T03:06:35;2.35;91.85
62476;DHT22;50739;45.670;11.936;2023-12-07T03:11:37;2.39;90.96
62476;DHT22;50739;45.670;11.936;2023-12-07T03:16:41;2.36;91.34
62476;DHT22;50739;45.670;11.936;2023-12-07T03:21:44;2.33;91.12
62476;DHT22;50739;45.670;11.936;2023-12-07T03:26:46;2.33;91.39
62476;DHT22;50739;45.670;11.936;2023-12-07T03:31:50;2.28;91.51
62476;DHT22;50739;45.670;11.936;2023-12-07T03:36:53;2.28;91.61
62476;DHT22;50739;45.670;11.936;2023-12-07T03:41:56;2.17;92.37
62476;DHT22;50739;45.670;11.936;2023-12-07T03:47:00;2.22;91.98
62476;DHT22;50739;45.670;11.936;2023-12-07T03:52:03;2.07;91.32
62476;DHT22;50739;45.670;11.936;2023-12-07T03:57:05;1.95;90.14
62476;DHT22;50739;45.670;11.936;2023-12-07T04:02:09;1.98;91.33
62476;DHT22;50739;45.670;11.936;2023-12-07T04:07:11;2.07;91.58
62476;DHT22;50739;45.670;11.936;2023-12-07T04:12:14;2.00;91.61
62476;DHT22;50739;45.670;11.936;2023-12-07T04:17:17;2.02;91.24
62476;DHT22;50739;45.670;11.936;2023-12-07T04:22:20;1.97;91.84
62476;DHT22;50739;45.670;11.936;2023-12-07T04:27:22;1.98;91.81
62476;DHT22;50739;45.670;11.936;2023-12-07T04:32:26;2.04;91.93
62476;DHT22;50739;45.670;11.936;2023-12-07T04:37:28;2.12;91.13
62476;DHT22;50739;45.670;11.936;2023-12-07T04:42:31;2.01;91.09
62476;DHT22;50739;45.670;11.936;2023-12-07T04:47:34;2.07;91.07
62476;DHT22;50739;45.670;11.936;2023-12-07T04:52:37;2.12;90.82
62476;DHT22;50739;45.670;11.936;2023-12-07T04:57:39;2.14;90.71
62476;DHT22;50739;45.670;11.936;2023-12-07T05:02:43;2.07;90.91
62476;DHT22;50739;45.670;11.936;2023-12-07T05:07:45;1.83;92.03
62476;DHT22;50739;45.670;11.936;2023-12-07T05:12:48;1.93;91.37
62476;DHT22;50739;45.670;11.936;2023-12-07T05:17:52;1.93;91.02
62476;DHT22;50739;45.670;11.936;2023-12-07T05:22:54;1.85;91.31
62476;DHT22;50739;45.670;11.936;2023-12-07T05:27:57;1.90;91.13
62476;DHT22;50739;45.670;11.936;2023-12-07T05:33:00;1.95;92.09
62476;DHT22;50739;45.670;11.936;2023-12-07T05:38:03;2.14;91.30
62476;DHT22;50739;45.670;11.936;2023-12-07T05:43:05;2.29;90.93
62476;DHT22;50739;45.670;11.936;2023-12-07T05:48:10;2.08;91.04
62476;DHT22;50739;45.670;11.936;2023-12-07T05:53:13;1.97;90.91
62476;DHT22;50739;45.670;11.936;2023-12-07T05:58:15;1.78;91.29
62476;DHT22;50739;45.670;11.936;2023-12-07T06:03:19;1.81;91.85
62476;DHT22;50739;45.670;11.936;2023-12-07T06:08:22;1.80;91.70
62476;DHT22;50739;45.670;11.936;2023-12-07T06:13:24;1.90;91.67
62476;DHT22;50739;45.670;11.936;2023-12-07T06:18:28;1.85;92.00
62476;DHT22;50739;45.670;11.936;2023-12-07T06:23:30;1.81;91.22
62476;DHT22;50739;45.670;11.936;2023-12-07T06:28:33;1.80;91.93
62476;DHT22;50739;45.670;11.936;2023-12-07T06:33:37;1.60;91.69
62476;DHT22;50739;45.670;11.936;2023-12-07T06:38:39;1.75;91.61
62476;DHT22;50739;45.670;11.936;2023-12-07T06:43:42;1.75;92.21
62476;DHT22;50739;45.670;11.936;2023-12-07T06:48:46;1.90;91.51
62476;DHT22;50739;45.670;11.936;2023-12-07T06:53:48;2.01;91.23
62476;DHT22;50739;45.670;11.936;2023-12-07T06:58:51;1.98;91.49
62476;DHT22;50739;45.670;11.936;2023-12-07T07:03:55;1.98;90.99
62476;DHT22;50739;45.670;11.936;2023-12-07T07:08:57;1.93;91.79
62476;DHT22;50739;45.670;11.936;2023-12-07T07:14:00;2.05;91.25
62476;DHT22;50739;45.670;11.936;2023-12-07T07:19:04;1.95;91.60
62476;DHT22;50739;45.670;11.936;2023-12-07T07:24:07;2.07;92.17
62476;DHT22;50739;45.670;11.936;2023-12-07T07:29:09;2.15;91.66
62476;DHT22;50739;45.670;11.936;2023-12-07T07:34:13;2.30;91.30
62476;DHT22;50739;45.670;11.936;2023-12-07T07:39:15;2.28;91.28
62476;DHT22;50739;45.670;11.936;2023-12-07T07:44:18;2.43;91.08
62476;DHT22;50739;45.670;11.936;2023-12-07T07:49:21;2.50;90.73
62476;DHT22;50739;45.670;11.936;2023-12-07T07:54:24;2.68;89.53
62476;DHT22;50739;45.670;11.936;2023-12-07T07:59:27;2.74;89.00
62476;DHT22;50739;45.670;11.936;2023-12-07T08:04:30;2.83;89.16
62476;DHT22;50739;45.670;11.936;2023-12-07T08:09:33;2.93;89.05
62476;DHT22;50739;45.670;11.936;2023-12-07T08:14:36;3.05;89.30
62476;DHT22;50739;45.670;11.936;2023-12-07T08:19:41;3.19;89.08
62476;DHT22;50739;45.670;11.936;2023-12-07T08:24:43;3.29;88.99
62476;DHT22;50739;45.670;11.936;2023-12-07T08:29:46;3.44;88.32
62476;DHT22;50739;45.670;11.936;2023-12-07T08:34:50;3.58;87.81
62476;DHT22;50739;45.670;11.936;2023-12-07T08:39:54;3.73;87.57
62476;DHT22;50739;45.670;11.936;2023-12-07T08:44:57;3.91;87.81
62476;DHT22;50739;45.670;11.936;2023-12-07T08:50:00;4.12;86.83
62476;DHT22;50739;45.670;11.936;2023-12-07T08:55:04;4.21;86.95
62476;DHT22;50739;45.670;11.936;2023-12-07T09:00:07;4.28;87.21
62476;DHT22;50739;45.670;11.936;2023-12-07T09:05:11;4.44;86.65
62476;DHT22;50739;45.670;11.936;2023-12-07T09:10:14;4.56;85.71
62476;DHT22;50739;45.670;11.936;2023-12-07T09:15:16;4.77;86.00
62476;DHT22;50739;45.670;11.936;2023-12-07T09:20:20;4.90;85.77
62476;DHT22;50739;45.670;11.936;2023-12-07T09:25:22;4.91;85.74
62476;DHT22;50739;45.670;11.936;2023-12-07T09:30:28;5.00;84.92
62476;DHT22;50739;45.670;11.936;2023-12-07T09:35:32;5.11;84.65
62476;DHT22;50739;45.670;11.936;2023-12-07T09:40:36;5.21;84.80
62476;DHT22;50739;45.670;11.936;2023-12-07T09:45:39;5.27;85.13
62476;DHT22;50739;45.670;11.936;2023-12-07T09:50:43;5.40;85.21
62476;DHT22;50739;45.670;11.936;2023-12-07T09:55:46;5.52;84.66
62476;DHT22;50739;45.670;11.936;2023-12-07T10:00:49;5.69;84.94
62476;DHT22;50739;45.670;11.936;2023-12-07T10:05:57;5.86;84.05
62476;DHT22;50739;45.670;11.936;2023-12-07T10:11:06;5.90;84.18
62476;DHT22;50739;45.670;11.936;2023-12-07T10:16:10;6.14;83.27
62476;DHT22;50739;45.670;11.936;2023-12-07T10:21:15;6.34;82.40
62476;DHT22;50739;45.670;11.936;2023-12-07T10:26:18;6.38;83.07
62476;DHT22;50739;45.670;11.936;2023-12-07T10:31:25;6.56;82.28
62476;DHT22;50739;45.670;11.936;2023-12-07T10:36:36;6.76;82.08
62476;DHT22;50739;45.670;11.936;2023-12-07T10:41:43;6.72;82.70
62476;DHT22;50739;45.670;11.936;2023-12-07T10:46:45;6.66;82.07
62476;DHT22;50739;45.670;11.936;2023-12-07T10:51:58;6.69;82.08
62476;DHT22;50739;45.670;11.936;2023-12-07T10:57:06;6.84;82.83
62476;DHT22;50739;45.670;11.936;2023-12-07T11:02:13;7.07;82.14
62476;DHT22;50739;45.670;11.936;2023-12-07T11:07:20;7.21;82.25
62476;DHT22;50739;45.670;11.936;2023-12-07T11:12:29;7.15;82.57
62476;DHT22;50739;45.670;11.936;2023-12-07T11:17:50;7.19;82.27
62476;DHT22;50739;45.670;11.936;2023-12-07T11:22:56;7.25;81.79
62476;DHT22;50739;45.670;11.936;2023-12-07T11:28:02;7.34;82.18
62476;DHT22;50739;45.670;11.936;2023-12-07T11:33:09;7.54;81.84
62476;DHT22;50739;45.670;11.936;2023-12-07T11:38:14;7.61;81.58
62476;DHT22;50739;45.670;11.936;2023-12-07T11:43:36;7.86;80.74
62476;DHT22;50739;45.670;11.936;2023-12-07T11:48:46;7.94;80.47
62476;DHT22;50739;45.670;11.936;2023-12-07T11:53:50;7.86;81.60
62476;DHT22;50739;45.670;11.936;2023-12-07T11:58:56;7.86;81.53
62476;DHT22;50739;45.670;11.936;2023-12-07T12:04:06;7.83;81.63
62476;DHT22;50739;45.670;11.936;2023-12-07T12:09:12;7.98;81.48
62476;DHT22;50739;45.670;11.936;2023-12-07T12:14:16;7.95;81.26
62476;DHT22;50739;45.670;11.936;2023-12-07T12:19:23;7.97;81.90
62476;DHT22;50739;45.670;11.936;2023-12-07T12:24:32;8.10;80.74
62476;DHT22;50739;45.670;11.936;2023-12-07T12:29:36;8.18;80.78
62476;DHT22;50739;45.670;11.936;2023-12-07T12:34:39;8.73;78.29
62476;DHT22;50739;45.670;11.936;2023-12-07T12:39:42;8.79;77.99
62476;DHT22;50739;45.670;11.936;2023-12-07T12:44:45;8.83;78.59
62476;DHT22;50739;45.670;11.936;2023-12-07T12:49:48;8.87;77.93
62476;DHT22;50739;45.670;11.936;2023-12-07T12:54:55;8.94;77.47
62476;DHT22;50739;45.670;11.936;2023-12-07T13:00:02;8.87;78.11
62476;DHT22;50739;45.670;11.936;2023-12-07T13:05:10;8.79;78.20
62476;DHT22;50739;45.670;11.936;2023-12-07T13:10:17;8.75;77.48
62476;DHT22;50739;45.670;11.936;2023-12-07T13:15:22;8.76;77.65
62476;DHT22;50739;45.670;11.936;2023-12-07T13:20:26;8.81;77.52
62476;DHT22;50739;45.670;11.936;2023-12-07T13:25:29;9.01;77.89
62476;DHT22;50739;45.670;11.936;2023-12-07T13:30:36;9.53;75.86
62476;DHT22;50739;45.670;11.936;2023-12-07T13:35:39;9.99;74.95
62476;DHT22;50739;45.670;11.936;2023-12-07T13:40:46;10.34;73.79
62476;DHT22;50739;45.670;11.936;2023-12-07T13:45:51;11.19;71.81
62476;DHT22;50739;45.670;11.936;2023-12-07T13:50:57;11.95;70.38
62476;DHT22;50739;45.670;11.936;2023-12-07T13:56:02;12.27;68.53
62476;DHT22;50739;45.670;11.936;2023-12-07T14:01:06;12.77;66.63
62476;DHT22;50739;45.670;11.936;2023-12-07T14:06:11;13.33;64.88
62476;DHT22;50739;45.670;11.936;2023-12-07T14:11:17;13.17;64.81
62476;DHT22;50739;45.670;11.936;2023-12-07T14:16:20;12.81;65.80
62476;DHT22;50739;45.670;11.936;2023-12-07T14:21:22;12.61;65.99
62476;DHT22;50739;45.670;11.936;2023-12-07T14:26:27;12.09;67.86
62476;DHT22;50739;45.670;11.936;2023-12-07T14:31:29;11.51;69.35
62476;DHT22;50739;45.670;11.936;2023-12-07T14:36:34;10.25;73.33
62476;DHT22;50739;45.670;11.936;2023-12-07T14:41:43;9.68;75.44
62476;DHT22;50739;45.670;11.936;2023-12-07T14:46:48;9.30;77.07
62476;DHT22;50739;45.670;11.936;2023-12-07T14:51:54;8.99;78.78
62476;DHT22;50739;45.670;11.936;2023-12-07T14:57:00;8.69;79.89
62476;DHT22;50739;45.670;11.936;2023-12-07T15:02:05;8.49;80.62
62476;DHT22;50739;45.670;11.936;2023-12-07T15:07:08;8.41;80.78
62476;DHT22;50739;45.670;11.936;2023-12-07T15:12:13;8.31;81.10
62476;DHT22;50739;45.670;11.936;2023-12-07T15:17:15;8.24;81.46
62476;DHT22;50739;45.670;11.936;2023-12-07T15:22:22;8.07;82.37
62476;DHT22;50739;45.670;11.936;2023-12-07T15:27:25;8.01;82.73
62476;DHT22;50739;45.670;11.936;2023-12-07T15:32:32;8.00;82.02
62476;DHT22;50739;45.670;11.936;2023-12-07T15:37:36;7.74;82.86
62476;DHT22;50739;45.670;11.936;2023-12-07T15:42:42;7.67;82.68
62476;DHT22;50739;45.670;11.936;2023-12-07T15:47:46;7.66;82.52
62476;DHT22;50739;45.670;11.936;2023-12-07T15:52:50;7.58;83.21
62476;DHT22;50739;45.670;11.936;2023-12-07T15:58:02;7.28;84.45
62476;DHT22;50739;45.670;11.936;2023-12-07T16:03:04;6.97;85.11
62476;DHT22;50739;45.670;11.936;2023-12-07T16:08:10;6.73;86.37
62476;DHT22;50739;45.670;11.936;2023-12-07T16:13:14;6.60;86.94
62476;DHT22;50739;45.670;11.936;2023-12-07T16:18:19;6.45;87.29
62476;DHT22;50739;45.670;11.936;2023-12-07T16:23:26;6.34;87.45
62476;DHT22;50739;45.670;11.936;2023-12-07T16:33:52;6.13;88.58
62476;DHT22;50739;45.670;11.936;2023-12-07T16:39:01;5.89;88.83
62476;DHT22;50739;45.670;11.936;2023-12-07T16:56:39;5.58;88.38
62476;DHT22;50739;45.670;11.936;2023-12-07T17:01:43;5.58;89.56
62476;DHT22;50739;45.670;11.936;2023-12-07T17:06:47;5.50;89.95
62476;DHT22;50739;45.670;11.936;2023-12-07T17:11:52;5.56;89.17
62476;DHT22;50739;45.670;11.936;2023-12-07T17:16:55;5.60;89.50
62476;DHT22;50739;45.670;11.936;2023-12-07T17:21:57;5.59;89.34
62476;DHT22;50739;45.670;11.936;2023-12-07T17:27:06;5.49;89.40
62476;DHT22;50739;45.670;11.936;2023-12-07T17:32:09;5.50;89.38
62476;DHT22;50739;45.670;11.936;2023-12-07T17:37:19;5.56;88.60
62476;DHT22;50739;45.670;11.936;2023-12-07T17:42:27;5.40;89.06
62476;DHT22;50739;45.670;11.936;2023-12-07T17:47:30;5.38;89.18
62476;DHT22;50739;45.670;11.936;2023-12-07T17:52:35;5.40;88.78
62476;DHT22;50739;45.670;11.936;2023-12-07T17:57:46;5.39;89.30
62476;DHT22;50739;45.670;11.936;2023-12-07T18:02:53;5.46;88.94
62476;DHT22;50739;45.670;11.936;2023-12-07T18:07:56;5.52;89.02
62476;DHT22;50739;45.670;11.936;2023-12-07T18:13:01;5.67;88.49
62476;DHT22;50739;45.670;11.936;2023-12-07T18:18:05;5.74;88.01
62476;DHT22;50739;45.670;11.936;2023-12-07T18:23:07;5.60;88.08
62476;DHT22;50739;45.670;11.936;2023-12-07T18:28:18;5.43;88.46
62476;DHT22;50739;45.670;11.936;2023-12-07T18:33:21;5.46;88.43
62476;DHT22;50739;45.670;11.936;2023-12-07T18:38:30;5.35;87.93
62476;DHT22;50739;45.670;11.936;2023-12-07T18:43:36;5.28;88.28
62476;DHT22;50739;45.670;11.936;2023-12-07T18:48:43;5.22;88.66
62476;DHT22;50739;45.670;11.936;2023-12-07T18:53:45;5.02;87.71
62476;DHT22;50739;45.670;11.936;2023-12-07T18:58:53;4.93;88.49
62476;DHT22;50739;45.670;11.936;2023-12-07T19:03:57;4.91;88.23
62476;DHT22;50739;45.670;11.936;2023-12-07T19:08:59;4.81;87.66
62476;DHT22;50739;45.670;11.936;2023-12-07T19:14:12;4.79;87.85
62476;DHT22;50739;45.670;11.936;2023-12-07T19:19:16;4.74;87.62
62476;DHT22;50739;45.670;11.936;2023-12-07T19:24:20;4.77;88.05
62476;DHT22;50739;45.670;11.936;2023-12-07T19:29:23;4.72;88.02
62476;DHT22;50739;45.670;11.936;2023-12-07T19:34:26;4.73;87.85
62476;DHT22;50739;45.670;11.936;2023-12-07T19:39:31;4.72;87.93
62476;DHT22;50739;45.670;11.936;2023-12-07T19:44:36;4.67;87.44
62476;DHT22;50739;45.670;11.936;2023-12-07T19:49:44;4.77;86.86
62476;DHT22;50739;45.670;11.936;2023-12-07T19:54:49;4.79;86.41
62476;DHT22;50739;45.670;11.936;2023-12-07T20:00:00;4.35;87.61
62476;DHT22;50739;45.670;11.936;2023-12-07T20:05:09;4.56;87.00
62476;DHT22;50739;45.670;11.936;2023-12-07T20:10:12;4.44;87.26
62476;DHT22;50739;45.670;11.936;2023-12-07T20:15:17;4.64;87.10
62476;DHT22;50739;45.670;11.936;2023-12-07T20:20:21;4.56;86.30
62476;DHT22;50739;45.670;11.936;2023-12-07T20:25:24;4.60;86.27
62476;DHT22;50739;45.670;11.936;2023-12-07T20:30:29;4.38;87.07
62476;DHT22;50739;45.670;11.936;2023-12-07T20:35:33;4.49;86.39
62476;DHT22;50739;45.670;11.936;2023-12-07T20:40:39;4.52;86.01
62476;DHT22;50739;45.670;11.936;2023-12-07T20:45:43;4.39;86.57
62476;DHT22;50739;45.670;11.936;2023-12-07T20:50:45;4.36;85.98
62476;DHT22;50739;45.670;11.936;2023-12-07T20:55:47;4.28;86.52
62476;DHT22;50739;45.670;11.936;2023-12-07T21:00:51;4.36;86.36
62476;DHT22;50739;45.670;11.936;2023-12-07T21:05:54;4.38;86.39
62476;DHT22;50739;45.670;11.936;2023-12-07T21:10:56;4.26;85.97
62476;DHT22;50739;45.670;11.936;2023-12-07T21:16:00;4.24;86.13
62476;DHT22;50739;45.670;11.936;2023-12-07T21:21:03;4.07;86.51
62476;DHT22;50739;45.670;11.936;2023-12-07T21:26:05;3.88;87.30
62476;DHT22;50739;45.670;11.936;2023-12-07T21:31:09;3.94;86.79
62476;DHT22;50739;45.670;11.936;2023-12-07T21:36:12;3.86;86.45
62476;DHT22;50739;45.670;11.936;2023-12-07T21:41:14;3.91;86.08
62476;DHT22;50739;45.670;11.936;2023-12-07T21:46:18;3.60;86.89
62476;DHT22;50739;45.670;11.936;2023-12-07T21:51:20;3.74;87.01
62476;DHT22;50739;45.670;11.936;2023-12-07T21:56:23;3.55;87.06
62476;DHT22;50739;45.670;11.936;2023-12-07T22:01:26;3.38;87.89
62476;DHT22;50739;45.670;11.936;2023-12-07T22:06:29;3.28;88.44
62476;DHT22;50739;45.670;11.936;2023-12-07T22:11:31;3.31;88.44
62476;DHT22;50739;45.670;11.936;2023-12-07T22:16:39;3.22;88.27
62476;DHT22;50739;45.670;11.936;2023-12-07T22:21:42;3.44;87.17
62476;DHT22;50739;45.670;11.936;2023-12-07T22:26:44;3.58;86.27
62476;DHT22;50739;45.670;11.936;2023-12-07T22:31:48;3.39;86.08
62476;DHT22;50739;45.670;11.936;2023-12-07T22:36:51;3.40;85.64
62476;DHT22;50739;45.670;11.936;2023-12-07T22:41:53;3.49;85.18
62476;DHT22;50739;45.670;11.936;2023-12-07T22:46:57;3.58;84.17
62476;DHT22;50739;45.670;11.936;2023-12-07T22:51:59;3.50;84.21
62476;DHT22;50739;45.670;11.936;2023-12-07T22:57:02;3.31;84.28
62476;DHT22;50739;45.670;11.936;2023-12-07T23:02:06;3.49;84.03
62476;DHT22;50739;45.670;11.936;2023-12-07T23:07:09;3.50;83.43
62476;DHT22;50739;45.670;11.936;2023-12-07T23:12:11;3.60;83.18
62476;DHT22;50739;45.670;11.936;2023-12-07T23:17:15;3.62;83.00
62476;DHT22;50739;45.670;11.936;2023-12-07T23:22:17;3.66;82.88
62476;DHT22;50739;45.670;11.936;2023-12-07T23:27:19;3.62;82.93
62476;DHT22;50739;45.670;11.936;2023-12-07T23:32:23;3.62;82.03
62476;DHT22;50739;45.670;11.936;2023-12-07T23:37:26;3.69;81.95
62476;DHT22;50739;45.670;11.936;2023-12-07T23:42:28;3.52;83.01
62476;DHT22;50739;45.670;11.936;2023-12-07T23:47:32;3.52;83.00
62476;DHT22;50739;45.670;11.936;2023-12-07T23:52:34;3.22;84.09
62476;DHT22;50739;45.670;11.936;2023-12-07T23:57:37;3.08;85.67
